sensor_id;sensor_type;location;lat;lon;timestamp;temperature;humidity
4643;DHT22;2334;48.710;9.622;2023-05-10T00:00:34;14.40;99.90
4643;DHT22;2334;48.710;9.622;2023-05-10T00:03:01;14.30;99.90
4643;DHT22;2334;48.710;9.622;2023-05-10T00:05:29;14.30;99.90
4643;DHT22;2334;48.710;9.622;2023-05-10T00:07:58;14.30;99.90
4643;DHT22;2334;48.710;9.622;2023-05-10T00:10:31;14.30;99.90
4643;DHT22;2334;48.710;9.622;2023-05-10T00:12:58;14.40;99.90
4643;DHT22;2334;48.710;9.622;2023-05-10T00:15:25;14.30;99.90
4643;DHT22;2334;48.710;9.622;2023-05-10T00:17:53;14.20;99.90
4643;DHT22;2334;48.710;9.622;2023-05-10T00:20:20;14.20;99.90
4643;DHT22;2334;48.710;9.622;2023-05-10T00:22:47;14.20;99.90
4643;DHT22;2334;48.710;9.622;2023-05-10T00:25:14;14.20;99.90
4643;DHT22;2334;48.710;9.622;2023-05-10T00:27:41;14.10;99.90
4643;DHT22;2334;48.710;9.622;2023-05-10T00:30:08;14.10;99.90
4643;DHT22;2334;48.710;9.622;2023-05-10T00:32:35;14.00;99.90
4643;DHT22;2334;48.710;9.622;2023-05-10T00:35:04;14.10;99.90
4643;DHT22;2334;48.710;9.622;2023-05-10T00:37:31;13.90;99.90
4643;DHT22;2334;48.710;9.622;2023-05-10T00:39:58;14.00;99.90
4643;DHT22;2334;48.710;9.622;2023-05-10T00:42:25;14.00;99.90
4643;DHT22;2334;48.710;9.622;2023-05-10T00:44:52;14.10;99.90
4643;DHT22;2334;48.710;9.622;2023-05-10T00:47:19;14.10;99.90
4643;DHT22;2334;48.710;9.622;2023-05-10T00:49:46;14.10;99.90
4643;DHT22;2334;48.710;9.622;2023-05-10T00:52:14;14.10;99.90
4643;DHT22;2334;48.710;9.622;2023-05-10T00:54:41;14.10;99.90
4643;DHT22;2334;48.710;9.622;2023-05-10T00:57:08;14.10;99.90
4643;DHT22;2334;48.710;9.622;2023-05-10T00:59:35;14.10;99.90
4643;DHT22;2334;48.710;9.622;2023-05-10T01:02:02;14.10;99.90
4643;DHT22;2334;48.710;9.622;2023-05-10T01:04:30;14.10;99.90
4643;DHT22;2334;48.710;9.622;2023-05-10T01:06:57;14.00;99.90
4643;DHT22;2334;48.710;9.622;2023-05-10T01:09:25;13.90;99.90
4643;DHT22;2334;48.710;9.622;2023-05-10T01:11:53;13.80;99.90
4643;DHT22;2334;48.710;9.622;2023-05-10T01:14:20;13.80;99.90
4643;DHT22;2334;48.710;9.622;2023-05-10T01:16:49;13.80;99.90
4643;DHT22;2334;48.710;9.622;2023-05-10T01:19:19;13.90;99.90
4643;DHT22;2334;48.710;9.622;2023-05-10T01:21:53;13.90;99.90
4643;DHT22;2334;48.710;9.622;2023-05-10T01:31:19;13.80;99.90
4643;DHT22;2334;48.710;9.622;2023-05-10T01:33:54;13.80;99.90
4643;DHT22;2334;48.710;9.622;2023-05-10T01:36:28;13.70;99.90
4643;DHT22;2334;48.710;9.622;2023-05-10T01:39:01;13.70;99.90
4643;DHT22;2334;48.710;9.622;2023-05-10T01:41:36;13.60;99.90
4643;DHT22;2334;48.710;9.622;2023-05-10T01:44:11;13.60;99.90
4643;DHT22;2334;48.710;9.622;2023-05-10T01:46:43;13.70;99.90
4643;DHT22;2334;48.710;9.622;2023-05-10T01:49:21;13.70;99.90
4643;DHT22;2334;48.710;9.622;2023-05-10T01:51:53;13.60;99.90
4643;DHT22;2334;48.710;9.622;2023-05-10T01:54:21;13.50;99.90
4643;DHT22;2334;48.710;9.622;2023-05-10T01:56:52;13.50;99.90
4643;DHT22;2334;48.710;9.622;2023-05-10T01:59:22;13.50;99.90
4643;DHT22;2334;48.710;9.622;2023-05-10T02:01:53;13.40;99.90
4643;DHT22;2334;48.710;9.622;2023-05-10T02:04:22;13.40;99.90
4643;DHT22;2334;48.710;9.622;2023-05-10T02:06:51;13.40;99.90
4643;DHT22;2334;48.710;9.622;2023-05-10T02:09:20;13.40;99.90
4643;DHT22;2334;48.710;9.622;2023-05-10T02:11:48;13.40;99.90
4643;DHT22;2334;48.710;9.622;2023-05-10T02:14:16;13.40;99.90
4643;DHT22;2334;48.710;9.622;2023-05-10T02:16:45;13.30;99.90
4643;DHT22;2334;48.710;9.622;2023-05-10T02:19:14;13.30;99.90
4643;DHT22;2334;48.710;9.622;2023-05-10T02:21:44;13.30;99.90
4643;DHT22;2334;48.710;9.622;2023-05-10T02:24:13;13.30;99.90
4643;DHT22;2334;48.710;9.622;2023-05-10T02:26:42;13.20;99.90
4643;DHT22;2334;48.710;9.622;2023-05-10T02:29:11;13.20;99.90
4643;DHT22;2334;48.710;9.622;2023-05-10T02:31:38;13.20;99.90
4643;DHT22;2334;48.710;9.622;2023-05-10T02:34:10;13.20;99.90
4643;DHT22;2334;48.710;9.622;2023-05-10T02:36:38;13.20;99.90
4643;DHT22;2334;48.710;9.622;2023-05-10T02:39:08;13.20;99.90
4643;DHT22;2334;48.710;9.622;2023-05-10T02:41:39;13.20;99.90
4643;DHT22;2334;48.710;9.622;2023-05-10T02:44:07;13.10;99.90
4643;DHT22;2334;48.710;9.622;2023-05-10T02:46:35;13.20;99.90
4643;DHT22;2334;48.710;9.622;2023-05-10T02:49:03;13.20;99.90
4643;DHT22;2334;48.710;9.622;2023-05-10T02:51:32;13.20;99.90
4643;DHT22;2334;48.710;9.622;2023-05-10T02:54:06;13.20;99.90
4643;DHT22;2334;48.710;9.622;2023-05-10T02:56:36;13.20;99.90
4643;DHT22;2334;48.710;9.622;2023-05-10T02:59:07;13.20;99.90
4643;DHT22;2334;48.710;9.622;2023-05-10T03:01:34;13.20;99.90
4643;DHT22;2334;48.710;9.622;2023-05-10T03:04:00;13.20;99.90
4643;DHT22;2334;48.710;9.622;2023-05-10T03:06:27;13.10;99.90
4643;DHT22;2334;48.710;9.622;2023-05-10T03:08:55;13.00;99.90
4643;DHT22;2334;48.710;9.622;2023-05-10T03:11:36;13.00;99.90
4643;DHT22;2334;48.710;9.622;2023-05-10T03:14:13;13.00;99.90
4643;DHT22;2334;48.710;9.622;2023-05-10T03:16:46;12.90;99.90
4643;DHT22;2334;48.710;9.622;2023-05-10T03:19:17;12.90;99.90
4643;DHT22;2334;48.710;9.622;2023-05-10T03:21:50;12.90;99.90
4643;DHT22;2334;48.710;9.622;2023-05-10T03:24:20;12.80;99.90
4643;DHT22;2334;48.710;9.622;2023-05-10T03:26:49;12.90;99.90
4643;DHT22;2334;48.710;9.622;2023-05-10T03:29:17;12.80;99.90
4643;DHT22;2334;48.710;9.622;2023-05-10T03:31:45;12.80;99.90
4643;DHT22;2334;48.710;9.622;2023-05-10T03:34:12;12.80;99.90
4643;DHT22;2334;48.710;9.622;2023-05-10T03:36:39;12.80;99.90
4643;DHT22;2334;48.710;9.622;2023-05-10T03:39:06;12.90;99.90
4643;DHT22;2334;48.710;9.622;2023-05-10T03:41:32;12.90;99.90
4643;DHT22;2334;48.710;9.622;2023-05-10T03:44:01;12.90;99.90
4643;DHT22;2334;48.710;9.622;2023-05-10T03:46:27;13.00;99.90
4643;DHT22;2334;48.710;9.622;2023-05-10T03:48:54;13.00;99.90
4643;DHT22;2334;48.710;9.622;2023-05-10T03:51:21;13.00;99.90
4643;DHT22;2334;48.710;9.622;2023-05-10T03:53:48;13.00;99.90
4643;DHT22;2334;48.710;9.622;2023-05-10T03:56:15;13.00;99.90
4643;DHT22;2334;48.710;9.622;2023-05-10T03:58:42;12.90;99.90
4643;DHT22;2334;48.710;9.622;2023-05-10T04:01:10;12.90;99.90
4643;DHT22;2334;48.710;9.622;2023-05-10T04:03:37;12.90;99.90
4643;DHT22;2334;48.710;9.622;2023-05-10T04:06:05;12.90;99.90
4643;DHT22;2334;48.710;9.622;2023-05-10T04:08:33;12.90;99.90
4643;DHT22;2334;48.710;9.622;2023-05-10T04:11:07;13.00;99.90
4643;DHT22;2334;48.710;9.622;2023-05-10T04:13:34;13.00;99.90
4643;DHT22;2334;48.710;9.622;2023-05-10T04:16:01;13.00;99.90
4643;DHT22;2334;48.710;9.622;2023-05-10T04:18:30;13.10;99.90
4643;DHT22;2334;48.710;9.622;2023-05-10T04:20:57;13.10;99.90
4643;DHT22;2334;48.710;9.622;2023-05-10T04:23:24;13.10;99.90
4643;DHT22;2334;48.710;9.622;2023-05-10T04:25:51;13.10;99.90
4643;DHT22;2334;48.710;9.622;2023-05-10T04:28:18;13.10;99.90
4643;DHT22;2334;48.710;9.622;2023-05-10T04:30:45;13.10;99.90
4643;DHT22;2334;48.710;9.622;2023-05-10T04:33:12;13.10;99.90
4643;DHT22;2334;48.710;9.622;2023-05-10T04:35:41;13.10;99.90
4643;DHT22;2334;48.710;9.622;2023-05-10T04:38:08;13.10;99.90
4643;DHT22;2334;48.710;9.622;2023-05-10T04:40:35;13.20;99.90
4643;DHT22;2334;48.710;9.622;2023-05-10T04:43:01;13.20;99.90
4643;DHT22;2334;48.710;9.622;2023-05-10T04:45:28;13.10;99.90
4643;DHT22;2334;48.710;9.622;2023-05-10T04:47:55;13.10;99.90
4643;DHT22;2334;48.710;9.622;2023-05-10T04:50:22;13.20;99.90
4643;DHT22;2334;48.710;9.622;2023-05-10T04:52:50;13.30;99.90
4643;DHT22;2334;48.710;9.622;2023-05-10T04:55:17;13.30;99.90
4643;DHT22;2334;48.710;9.622;2023-05-10T04:57:44;13.30;99.90
4643;DHT22;2334;48.710;9.622;2023-05-10T05:00:12;13.40;99.90
4643;DHT22;2334;48.710;9.622;2023-05-10T05:02:42;13.40;99.90
4643;DHT22;2334;48.710;9.622;2023-05-10T05:05:10;13.40;99.90
4643;DHT22;2334;48.710;9.622;2023-05-10T05:07:37;13.30;99.90
4643;DHT22;2334;48.710;9.622;2023-05-10T05:10:07;13.40;99.90
4643;DHT22;2334;48.710;9.622;2023-05-10T05:12:34;13.40;99.90
4643;DHT22;2334;48.710;9.622;2023-05-10T05:15:02;13.30;99.90
4643;DHT22;2334;48.710;9.622;2023-05-10T05:17:30;13.30;99.90
4643;DHT22;2334;48.710;9.622;2023-05-10T05:19:57;13.30;99.90
4643;DHT22;2334;48.710;9.622;2023-05-10T05:22:24;13.30;99.90
4643;DHT22;2334;48.710;9.622;2023-05-10T05:24:53;13.40;99.90
4643;DHT22;2334;48.710;9.622;2023-05-10T05:27:21;13.40;99.90
4643;DHT22;2334;48.710;9.622;2023-05-10T05:29:49;13.40;99.90
4643;DHT22;2334;48.710;9.622;2023-05-10T05:32:19;13.40;99.90
4643;DHT22;2334;48.710;9.622;2023-05-10T05:34:46;13.40;99.90
4643;DHT22;2334;48.710;9.622;2023-05-10T05:37:13;13.30;99.90
4643;DHT22;2334;48.710;9.622;2023-05-10T05:39:41;13.30;99.90
4643;DHT22;2334;48.710;9.622;2023-05-10T05:42:08;13.40;99.90
4643;DHT22;2334;48.710;9.622;2023-05-10T05:44:36;13.40;99.90
4643;DHT22;2334;48.710;9.622;2023-05-10T05:47:04;13.40;99.90
4643;DHT22;2334;48.710;9.622;2023-05-10T05:49:31;13.50;99.90
4643;DHT22;2334;48.710;9.622;2023-05-10T05:51:59;13.50;99.90
4643;DHT22;2334;48.710;9.622;2023-05-10T05:54:26;13.50;99.90
4643;DHT22;2334;48.710;9.622;2023-05-10T05:56:54;13.60;99.90
4643;DHT22;2334;48.710;9.622;2023-05-10T05:59:22;13.60;99.90
4643;DHT22;2334;48.710;9.622;2023-05-10T06:01:50;13.60;99.90
4643;DHT22;2334;48.710;9.622;2023-05-10T06:04:18;13.60;99.90
4643;DHT22;2334;48.710;9.622;2023-05-10T06:06:45;13.60;99.90
4643;DHT22;2334;48.710;9.622;2023-05-10T06:09:12;13.60;99.90
4643;DHT22;2334;48.710;9.622;2023-05-10T06:11:39;13.70;99.90
4643;DHT22;2334;48.710;9.622;2023-05-10T06:14:06;13.70;99.90
4643;DHT22;2334;48.710;9.622;2023-05-10T06:16:33;13.60;99.90
4643;DHT22;2334;48.710;9.622;2023-05-10T06:19:01;13.60;99.90
4643;DHT22;2334;48.710;9.622;2023-05-10T06:21:28;13.60;99.90
4643;DHT22;2334;48.710;9.622;2023-05-10T06:23:55;13.60;99.90
4643;DHT22;2334;48.710;9.622;2023-05-10T06:26:22;13.60;99.90
4643;DHT22;2334;48.710;9.622;2023-05-10T06:28:49;13.70;99.90
4643;DHT22;2334;48.710;9.622;2023-05-10T06:31:16;13.80;99.90
4643;DHT22;2334;48.710;9.622;2023-05-10T06:33:43;13.90;99.90
4643;DHT22;2334;48.710;9.622;2023-05-10T06:36:11;13.90;99.90
4643;DHT22;2334;48.710;9.622;2023-05-10T06:38:38;13.90;99.90
4643;DHT22;2334;48.710;9.622;2023-05-10T06:41:05;13.90;99.90
4643;DHT22;2334;48.710;9.622;2023-05-10T06:43:32;13.90;99.90
4643;DHT22;2334;48.710;9.622;2023-05-10T06:45:59;13.80;99.90
4643;DHT22;2334;48.710;9.622;2023-05-10T06:48:26;13.80;99.90
4643;DHT22;2334;48.710;9.622;2023-05-10T06:50:53;13.80;99.90
4643;DHT22;2334;48.710;9.622;2023-05-10T06:53:21;13.80;99.90
4643;DHT22;2334;48.710;9.622;2023-05-10T06:55:49;13.90;99.90
4643;DHT22;2334;48.710;9.622;2023-05-10T06:58:16;13.90;99.90
4643;DHT22;2334;48.710;9.622;2023-05-10T07:00:43;13.90;99.90
4643;DHT22;2334;48.710;9.622;2023-05-10T07:03:10;14.00;99.90
4643;DHT22;2334;48.710;9.622;2023-05-10T07:05:37;14.00;99.90
4643;DHT22;2334;48.710;9.622;2023-05-10T07:08:04;14.00;99.90
4643;DHT22;2334;48.710;9.622;2023-05-10T07:10:33;14.00;99.90
4643;DHT22;2334;48.710;9.622;2023-05-10T07:12:59;14.00;99.90
4643;DHT22;2334;48.710;9.622;2023-05-10T07:15:27;13.90;99.90
4643;DHT22;2334;48.710;9.622;2023-05-10T07:17:54;14.10;99.90
4643;DHT22;2334;48.710;9.622;2023-05-10T07:20:20;14.10;99.90
4643;DHT22;2334;48.710;9.622;2023-05-10T07:22:47;14.10;99.90
4643;DHT22;2334;48.710;9.622;2023-05-10T07:25:14;14.10;99.90
4643;DHT22;2334;48.710;9.622;2023-05-10T07:27:42;14.10;99.90
4643;DHT22;2334;48.710;9.622;2023-05-10T07:30:10;14.10;99.90
4643;DHT22;2334;48.710;9.622;2023-05-10T07:32:37;14.20;99.90
4643;DHT22;2334;48.710;9.622;2023-05-10T07:35:05;14.20;99.90
4643;DHT22;2334;48.710;9.622;2023-05-10T07:37:32;14.10;99.90
4643;DHT22;2334;48.710;9.622;2023-05-10T07:39:59;14.10;99.90
4643;DHT22;2334;48.710;9.622;2023-05-10T07:42:25;14.10;99.90
4643;DHT22;2334;48.710;9.622;2023-05-10T07:44:54;14.30;99.90
4643;DHT22;2334;48.710;9.622;2023-05-10T07:47:20;14.30;99.90
4643;DHT22;2334;48.710;9.622;2023-05-10T07:49:47;14.20;99.90
4643;DHT22;2334;48.710;9.622;2023-05-10T07:52:14;14.20;99.90
4643;DHT22;2334;48.710;9.622;2023-05-10T07:54:41;14.20;99.90
4643;DHT22;2334;48.710;9.622;2023-05-10T07:57:08;14.30;99.90
4643;DHT22;2334;48.710;9.622;2023-05-10T07:59:35;14.30;99.90
4643;DHT22;2334;48.710;9.622;2023-05-10T08:02:03;14.20;99.90
4643;DHT22;2334;48.710;9.622;2023-05-10T08:04:30;14.20;99.90
4643;DHT22;2334;48.710;9.622;2023-05-10T08:06:57;14.20;99.90
4643;DHT22;2334;48.710;9.622;2023-05-10T08:09:24;14.20;99.90
4643;DHT22;2334;48.710;9.622;2023-05-10T08:11:51;14.20;99.90
4643;DHT22;2334;48.710;9.622;2023-05-10T08:14:18;14.30;99.90
4643;DHT22;2334;48.710;9.622;2023-05-10T08:16:45;14.40;99.90
4643;DHT22;2334;48.710;9.622;2023-05-10T08:19:13;14.40;99.90
4643;DHT22;2334;48.710;9.622;2023-05-10T08:21:44;14.40;99.90
4643;DHT22;2334;48.710;9.622;2023-05-10T08:24:11;14.60;99.90
4643;DHT22;2334;48.710;9.622;2023-05-10T08:26:38;14.70;99.90
4643;DHT22;2334;48.710;9.622;2023-05-10T08:29:05;14.80;99.90
4643;DHT22;2334;48.710;9.622;2023-05-10T08:31:32;15.00;99.90
4643;DHT22;2334;48.710;9.622;2023-05-10T08:33:59;15.00;99.90
4643;DHT22;2334;48.710;9.622;2023-05-10T08:36:27;15.10;99.90
4643;DHT22;2334;48.710;9.622;2023-05-10T08:38:54;14.90;99.90
4643;DHT22;2334;48.710;9.622;2023-05-10T08:41:22;15.00;99.90
4643;DHT22;2334;48.710;9.622;2023-05-10T08:43:50;15.00;99.90
4643;DHT22;2334;48.710;9.622;2023-05-10T08:46:18;15.00;99.90
4643;DHT22;2334;48.710;9.622;2023-05-10T08:48:46;15.00;99.90
4643;DHT22;2334;48.710;9.622;2023-05-10T08:51:15;15.00;99.90
4643;DHT22;2334;48.710;9.622;2023-05-10T08:53:44;15.10;99.90
4643;DHT22;2334;48.710;9.622;2023-05-10T08:56:11;15.20;99.90
4643;DHT22;2334;48.710;9.622;2023-05-10T08:58:38;15.30;99.90
4643;DHT22;2334;48.710;9.622;2023-05-10T09:01:05;15.30;99.90
4643;DHT22;2334;48.710;9.622;2023-05-10T09:03:33;15.40;99.90
4643;DHT22;2334;48.710;9.622;2023-05-10T09:05:59;15.30;99.90
4643;DHT22;2334;48.710;9.622;2023-05-10T09:08:26;15.40;99.90
4643;DHT22;2334;48.710;9.622;2023-05-10T09:10:55;15.40;99.90
4643;DHT22;2334;48.710;9.622;2023-05-10T09:13:23;15.20;99.90
4643;DHT22;2334;48.710;9.622;2023-05-10T09:15:52;15.20;99.90
4643;DHT22;2334;48.710;9.622;2023-05-10T09:18:19;15.30;99.90
4643;DHT22;2334;48.710;9.622;2023-05-10T09:20:46;15.40;99.90
4643;DHT22;2334;48.710;9.622;2023-05-10T09:23:13;15.40;99.90
4643;DHT22;2334;48.710;9.622;2023-05-10T09:25:41;15.30;99.90
4643;DHT22;2334;48.710;9.622;2023-05-10T09:28:11;15.30;99.90
4643;DHT22;2334;48.710;9.622;2023-05-10T09:30:38;15.50;99.90
4643;DHT22;2334;48.710;9.622;2023-05-10T09:33:05;15.50;99.90
4643;DHT22;2334;48.710;9.622;2023-05-10T09:35:33;15.50;99.90
4643;DHT22;2334;48.710;9.622;2023-05-10T09:38:03;15.60;99.90
4643;DHT22;2334;48.710;9.622;2023-05-10T09:40:30;15.60;99.90
4643;DHT22;2334;48.710;9.622;2023-05-10T09:42:59;15.60;99.90
4643;DHT22;2334;48.710;9.622;2023-05-10T09:45:29;15.40;99.90
4643;DHT22;2334;48.710;9.622;2023-05-10T09:47:57;15.40;99.90
4643;DHT22;2334;48.710;9.622;2023-05-10T09:50:24;15.40;99.90
4643;DHT22;2334;48.710;9.622;2023-05-10T09:52:52;15.40;99.90
4643;DHT22;2334;48.710;9.622;2023-05-10T09:55:22;15.30;99.90
4643;DHT22;2334;48.710;9.622;2023-05-10T09:57:58;15.30;99.90
4643;DHT22;2334;48.710;9.622;2023-05-10T10:00:25;15.30;99.90
4643;DHT22;2334;48.710;9.622;2023-05-10T10:02:56;15.30;99.90
4643;DHT22;2334;48.710;9.622;2023-05-10T10:05:28;15.30;99.90
4643;DHT22;2334;48.710;9.622;2023-05-10T10:07:56;15.20;99.90
4643;DHT22;2334;48.710;9.622;2023-05-10T10:10:24;15.10;99.90
4643;DHT22;2334;48.710;9.622;2023-05-10T10:12:51;15.10;99.90
4643;DHT22;2334;48.710;9.622;2023-05-10T10:15:24;15.20;99.90
4643;DHT22;2334;48.710;9.622;2023-05-10T10:17:52;15.30;99.90
4643;DHT22;2334;48.710;9.622;2023-05-10T10:20:22;15.40;99.90
4643;DHT22;2334;48.710;9.622;2023-05-10T10:22:49;15.40;99.90
4643;DHT22;2334;48.710;9.622;2023-05-10T10:25:17;15.30;99.90
4643;DHT22;2334;48.710;9.622;2023-05-10T10:27:56;15.30;99.90
4643;DHT22;2334;48.710;9.622;2023-05-10T10:30:28;15.20;99.90
4643;DHT22;2334;48.710;9.622;2023-05-10T10:33:13;15.10;99.90
4643;DHT22;2334;48.710;9.622;2023-05-10T10:35:43;15.10;99.90
4643;DHT22;2334;48.710;9.622;2023-05-10T10:38:12;15.10;99.90
4643;DHT22;2334;48.710;9.622;2023-05-10T10:40:39;15.00;99.90
4643;DHT22;2334;48.710;9.622;2023-05-10T10:43:22;14.80;99.90
4643;DHT22;2334;48.710;9.622;2023-05-10T10:46:10;14.60;99.90
4643;DHT22;2334;48.710;9.622;2023-05-10T10:48:39;14.60;99.90
4643;DHT22;2334;48.710;9.622;2023-05-10T10:51:07;14.50;99.90
4643;DHT22;2334;48.710;9.622;2023-05-10T10:53:34;14.50;99.90
4643;DHT22;2334;48.710;9.622;2023-05-10T10:56:07;14.40;99.90
4643;DHT22;2334;48.710;9.622;2023-05-10T10:58:36;14.60;99.90
4643;DHT22;2334;48.710;9.622;2023-05-10T11:01:11;14.70;99.90
4643;DHT22;2334;48.710;9.622;2023-05-10T11:03:38;14.70;99.90
4643;DHT22;2334;48.710;9.622;2023-05-10T11:06:06;15.00;99.90
4643;DHT22;2334;48.710;9.622;2023-05-10T11:08:41;15.00;99.90
4643;DHT22;2334;48.710;9.622;2023-05-10T11:11:09;15.10;99.90
4643;DHT22;2334;48.710;9.622;2023-05-10T11:13:40;15.30;99.90
4643;DHT22;2334;48.710;9.622;2023-05-10T11:16:12;15.30;99.90
4643;DHT22;2334;48.710;9.622;2023-05-10T11:18:39;15.50;99.90
4643;DHT22;2334;48.710;9.622;2023-05-10T11:21:09;15.50;99.90
4643;DHT22;2334;48.710;9.622;2023-05-10T11:23:52;15.50;99.90
4643;DHT22;2334;48.710;9.622;2023-05-10T11:26:22;15.80;99.90
4643;DHT22;2334;48.710;9.622;2023-05-10T11:28:52;16.00;99.90
4643;DHT22;2334;48.710;9.622;2023-05-10T11:31:21;15.90;99.90
4643;DHT22;2334;48.710;9.622;2023-05-10T11:33:51;16.20;99.90
4643;DHT22;2334;48.710;9.622;2023-05-10T11:36:20;16.30;99.90
4643;DHT22;2334;48.710;9.622;2023-05-10T11:38:48;16.30;99.90
4643;DHT22;2334;48.710;9.622;2023-05-10T11:41:17;16.40;99.90
4643;DHT22;2334;48.710;9.622;2023-05-10T11:43:46;16.30;99.90
4643;DHT22;2334;48.710;9.622;2023-05-10T11:46:14;16.30;99.90
4643;DHT22;2334;48.710;9.622;2023-05-10T11:48:42;16.10;99.90
4643;DHT22;2334;48.710;9.622;2023-05-10T11:51:09;16.00;99.90
4643;DHT22;2334;48.710;9.622;2023-05-10T11:53:38;15.80;99.90
4643;DHT22;2334;48.710;9.622;2023-05-10T11:56:05;15.60;99.90
4643;DHT22;2334;48.710;9.622;2023-05-10T11:58:33;15.40;99.90
4643;DHT22;2334;48.710;9.622;2023-05-10T12:01:00;15.30;99.90
4643;DHT22;2334;48.710;9.622;2023-05-10T12:03:27;15.10;99.90
4643;DHT22;2334;48.710;9.622;2023-05-10T12:05:55;14.80;99.90
4643;DHT22;2334;48.710;9.622;2023-05-10T12:08:24;14.60;99.90
4643;DHT22;2334;48.710;9.622;2023-05-10T12:10:52;14.20;99.90
4643;DHT22;2334;48.710;9.622;2023-05-10T12:13:20;13.70;99.90
4643;DHT22;2334;48.710;9.622;2023-05-10T12:15:47;13.30;99.90
4643;DHT22;2334;48.710;9.622;2023-05-10T12:18:14;13.00;99.90
4643;DHT22;2334;48.710;9.622;2023-05-10T12:20:41;13.00;99.90
4643;DHT22;2334;48.710;9.622;2023-05-10T12:23:09;13.00;99.90
4643;DHT22;2334;48.710;9.622;2023-05-10T12:25:37;12.90;99.90
4643;DHT22;2334;48.710;9.622;2023-05-10T12:28:06;12.90;99.90
4643;DHT22;2334;48.710;9.622;2023-05-10T12:30:35;12.60;99.90
4643;DHT22;2334;48.710;9.622;2023-05-10T12:33:07;12.60;99.90
4643;DHT22;2334;48.710;9.622;2023-05-10T12:35:44;12.40;99.90
4643;DHT22;2334;48.710;9.622;2023-05-10T12:38:28;12.30;99.90
4643;DHT22;2334;48.710;9.622;2023-05-10T12:40:56;12.20;99.90
4643;DHT22;2334;48.710;9.622;2023-05-10T12:43:25;12.30;99.90
4643;DHT22;2334;48.710;9.622;2023-05-10T12:45:52;12.20;99.90
4643;DHT22;2334;48.710;9.622;2023-05-10T12:48:19;12.20;99.90
4643;DHT22;2334;48.710;9.622;2023-05-10T12:50:46;12.30;99.90
4643;DHT22;2334;48.710;9.622;2023-05-10T12:53:14;12.30;99.90
4643;DHT22;2334;48.710;9.622;2023-05-10T12:55:41;12.40;99.90
4643;DHT22;2334;48.710;9.622;2023-05-10T12:58:08;12.30;99.90
4643;DHT22;2334;48.710;9.622;2023-05-10T13:00:37;12.40;99.90
4643;DHT22;2334;48.710;9.622;2023-05-10T13:03:04;12.40;99.90
4643;DHT22;2334;48.710;9.622;2023-05-10T13:05:32;12.50;99.90
4643;DHT22;2334;48.710;9.622;2023-05-10T13:07:59;12.60;99.90
4643;DHT22;2334;48.710;9.622;2023-05-10T13:10:26;12.80;99.90
4643;DHT22;2334;48.710;9.622;2023-05-10T13:12:53;13.00;99.90
4643;DHT22;2334;48.710;9.622;2023-05-10T13:15:20;13.10;99.90
4643;DHT22;2334;48.710;9.622;2023-05-10T13:17:48;13.20;99.90
4643;DHT22;2334;48.710;9.622;2023-05-10T13:20:15;13.20;99.90
4643;DHT22;2334;48.710;9.622;2023-05-10T13:22:43;13.20;99.90
4643;DHT22;2334;48.710;9.622;2023-05-10T13:25:10;13.20;99.90
4643;DHT22;2334;48.710;9.622;2023-05-10T13:27:38;13.40;99.90
4643;DHT22;2334;48.710;9.622;2023-05-10T13:30:06;13.60;99.90
4643;DHT22;2334;48.710;9.622;2023-05-10T13:32:33;13.60;99.90
4643;DHT22;2334;48.710;9.622;2023-05-10T13:35:02;13.70;99.90
4643;DHT22;2334;48.710;9.622;2023-05-10T13:37:30;13.90;99.90
4643;DHT22;2334;48.710;9.622;2023-05-10T13:39:57;14.00;99.90
4643;DHT22;2334;48.710;9.622;2023-05-10T13:42:23;14.00;99.90
4643;DHT22;2334;48.710;9.622;2023-05-10T13:44:50;14.10;99.90
4643;DHT22;2334;48.710;9.622;2023-05-10T13:47:17;14.20;99.90
4643;DHT22;2334;48.710;9.622;2023-05-10T13:49:44;14.40;99.90
4643;DHT22;2334;48.710;9.622;2023-05-10T13:52:13;14.40;99.90
4643;DHT22;2334;48.710;9.622;2023-05-10T13:54:40;14.60;99.90
4643;DHT22;2334;48.710;9.622;2023-05-10T13:57:07;14.70;99.90
4643;DHT22;2334;48.710;9.622;2023-05-10T13:59:33;14.80;99.90
4643;DHT22;2334;48.710;9.622;2023-05-10T14:02:00;14.90;99.90
4643;DHT22;2334;48.710;9.622;2023-05-10T14:04:28;15.00;99.90
4643;DHT22;2334;48.710;9.622;2023-05-10T14:06:56;14.90;99.90
4643;DHT22;2334;48.710;9.622;2023-05-10T14:09:24;14.90;99.90
4643;DHT22;2334;48.710;9.622;2023-05-10T14:11:51;15.00;99.90
4643;DHT22;2334;48.710;9.622;2023-05-10T14:14:18;15.10;99.90
4643;DHT22;2334;48.710;9.622;2023-05-10T14:16:45;15.00;99.90
4643;DHT22;2334;48.710;9.622;2023-05-10T14:19:12;14.90;99.90
4643;DHT22;2334;48.710;9.622;2023-05-10T14:21:39;14.90;99.90
4643;DHT22;2334;48.710;9.622;2023-05-10T14:24:06;15.00;99.90
4643;DHT22;2334;48.710;9.622;2023-05-10T14:26:34;15.10;99.90
4643;DHT22;2334;48.710;9.622;2023-05-10T14:29:01;15.30;99.90
4643;DHT22;2334;48.710;9.622;2023-05-10T14:31:28;15.50;99.90
4643;DHT22;2334;48.710;9.622;2023-05-10T14:33:55;15.50;99.90
4643;DHT22;2334;48.710;9.622;2023-05-10T14:36:22;15.50;99.90
4643;DHT22;2334;48.710;9.622;2023-05-10T14:38:49;15.50;99.90
4643;DHT22;2334;48.710;9.622;2023-05-10T14:41:17;15.60;99.90
4643;DHT22;2334;48.710;9.622;2023-05-10T14:43:46;15.50;99.90
4643;DHT22;2334;48.710;9.622;2023-05-10T14:46:12;15.50;99.90
4643;DHT22;2334;48.710;9.622;2023-05-10T14:48:39;15.50;99.90
4643;DHT22;2334;48.710;9.622;2023-05-10T14:51:06;15.30;99.90
4643;DHT22;2334;48.710;9.622;2023-05-10T14:53:33;15.40;99.90
4643;DHT22;2334;48.710;9.622;2023-05-10T14:56:00;15.50;99.90
4643;DHT22;2334;48.710;9.622;2023-05-10T14:58:28;15.30;99.90
4643;DHT22;2334;48.710;9.622;2023-05-10T15:00:57;15.30;99.90
4643;DHT22;2334;48.710;9.622;2023-05-10T15:03:24;15.30;99.90
4643;DHT22;2334;48.710;9.622;2023-05-10T15:05:50;15.40;99.90
4643;DHT22;2334;48.710;9.622;2023-05-10T15:08:23;15.30;99.90
4643;DHT22;2334;48.710;9.622;2023-05-10T15:10:50;15.40;99.90
4643;DHT22;2334;48.710;9.622;2023-05-10T15:13:17;15.40;99.90
4643;DHT22;2334;48.710;9.622;2023-05-10T15:15:44;15.40;99.90
4643;DHT22;2334;48.710;9.622;2023-05-10T15:18:13;15.50;99.90
4643;DHT22;2334;48.710;9.622;2023-05-10T15:20:40;15.60;99.90
4643;DHT22;2334;48.710;9.622;2023-05-10T15:23:07;15.50;99.90
4643;DHT22;2334;48.710;9.622;2023-05-10T15:25:34;15.60;99.90
4643;DHT22;2334;48.710;9.622;2023-05-10T15:28:03;15.70;99.90
4643;DHT22;2334;48.710;9.622;2023-05-10T15:30:30;15.80;99.90
4643;DHT22;2334;48.710;9.622;2023-05-10T15:32:57;15.80;99.90
4643;DHT22;2334;48.710;9.622;2023-05-10T15:35:25;15.70;99.90
4643;DHT22;2334;48.710;9.622;2023-05-10T15:37:52;15.70;99.90
4643;DHT22;2334;48.710;9.622;2023-05-10T15:40:19;15.50;99.90
4643;DHT22;2334;48.710;9.622;2023-05-10T15:42:46;15.40;99.90
4643;DHT22;2334;48.710;9.622;2023-05-10T15:45:13;15.40;99.90
4643;DHT22;2334;48.710;9.622;2023-05-10T15:47:40;15.50;99.90
4643;DHT22;2334;48.710;9.622;2023-05-10T15:50:08;15.60;99.90
4643;DHT22;2334;48.710;9.622;2023-05-10T15:52:36;15.60;99.90
4643;DHT22;2334;48.710;9.622;2023-05-10T15:55:03;15.60;99.90
4643;DHT22;2334;48.710;9.622;2023-05-10T15:57:37;15.60;99.90
4643;DHT22;2334;48.710;9.622;2023-05-10T16:00:05;15.30;99.90
4643;DHT22;2334;48.710;9.622;2023-05-10T16:02:32;15.10;99.90
4643;DHT22;2334;48.710;9.622;2023-05-10T16:04:59;15.10;99.90
4643;DHT22;2334;48.710;9.622;2023-05-10T16:07:26;15.20;99.90
4643;DHT22;2334;48.710;9.622;2023-05-10T16:09:54;15.30;99.90
4643;DHT22;2334;48.710;9.622;2023-05-10T16:12:21;15.30;99.90
4643;DHT22;2334;48.710;9.622;2023-05-10T16:14:48;15.20;99.90